Airport View

Enter AWOS ICAO identifier for current METAR.

ex. KFNL

KHZD 190615Z AUTO 36010G21KT 4SM BR BKN007 OVC011 10/09 A2960 RMK A01

19 Apr 2019 06:21

Frequency: 133.275

Phone: 731-352-2854

Other Area AWOS: KPHT - KPVE - KUCY - KCEY

TAF KMKL 190532Z 1906/2006 34016G26KT 5SM -SHRA BR BKN006 OVC010 FM190800 35015G22KT P6SM VCSH OVC009 FM191800 35014G20KT P6SM VCSH OVC015 FM200000 32011KT P6SM OVC015